createdAt,value
2018-04-06T06:50:18.509Z,112.40
2018-04-06T06:50:35.997Z,7.00
2018-04-06T06:50:53.498Z,7.72
2018-04-06T06:51:10.994Z,8.73
2018-04-06T06:51:28.497Z,8.30
2018-04-06T06:51:46.771Z,9.65
2018-04-06T06:52:04.270Z,9.40
2018-04-06T06:52:21.761Z,8.55
2018-04-06T06:52:39.246Z,7.90
2018-04-06T06:52:56.745Z,6.53
2018-04-06T06:53:14.264Z,7.85
2018-04-06T06:53:31.745Z,7.80
2018-04-06T06:53:49.234Z,9.52
2018-04-06T06:54:06.722Z,9.32
2018-04-06T06:54:24.201Z,8.73
2018-04-06T06:54:42.470Z,8.55
2018-04-06T06:54:59.956Z,9.40
2018-04-06T06:55:18.198Z,9.50
2018-04-06T06:55:35.721Z,9.48
2018-04-06T06:55:53.206Z,8.85
2018-04-06T06:56:11.465Z,8.20
2018-04-06T06:56:29.732Z,10.23
2018-04-06T06:56:48.063Z,12.30
2018-04-06T06:57:05.649Z,10.60
2018-04-06T06:57:23.166Z,10.13
2018-04-06T06:57:40.739Z,10.02
2018-04-06T06:57:58.329Z,9.32
2018-04-06T06:58:15.907Z,9.32
2018-04-06T06:58:33.406Z,9.23
2018-04-06T06:58:50.926Z,8.48
2018-04-06T06:59:08.491Z,9.15
2018-04-06T06:59:26.041Z,9.25
2018-04-06T06:59:43.624Z,8.98
2018-04-06T07:00:01.194Z,10.73
2018-04-06T07:00:18.731Z,9.32
2018-04-06T07:00:36.226Z,10.27
2018-04-06T07:00:54.489Z,10.00
2018-04-06T07:01:11.985Z,7.95
2018-04-06T07:01:29.985Z,8.80
2018-04-06T07:01:48.269Z,8.98
2018-04-06T07:02:05.867Z,8.32
2018-04-06T07:02:23.354Z,7.57
2018-04-06T07:02:41.614Z,7.05
2018-04-06T07:02:59.126Z,8.05
2018-04-06T07:03:16.666Z,9.38
2018-04-06T07:03:34.189Z,9.73
2018-04-06T07:03:51.715Z,13.25
2018-04-06T07:04:09.213Z,13.23
2018-04-06T07:04:26.714Z,11.20
2018-04-06T07:04:44.207Z,9.52
2018-04-06T07:05:01.715Z,10.23
2018-04-06T07:05:19.300Z,9.40
2018-04-06T07:05:36.793Z,9.85
2018-04-06T07:05:54.286Z,9.30
2018-04-06T07:06:12.540Z,8.35
2018-04-06T07:06:30.035Z,9.88
2018-04-06T07:06:48.290Z,10.90
2018-04-06T07:07:05.781Z,11.65
2018-04-06T07:07:23.260Z,12.55
2018-04-06T07:07:40.756Z,11.20
2018-04-06T07:07:58.259Z,12.13
2018-04-06T07:08:15.769Z,11.85
2018-04-06T07:08:33.309Z,11.77
2018-04-06T07:08:50.812Z,9.02
2018-04-06T07:09:08.351Z,10.57
2018-04-06T07:09:25.832Z,10.35
2018-04-06T07:09:43.323Z,7.20
2018-04-06T07:10:00.811Z,10.10
2018-04-06T07:10:18.293Z,9.43
2018-04-06T07:10:35.785Z,10.07
2018-04-06T07:10:54.707Z,12.27
2018-04-06T07:11:12.997Z,9.52
2018-04-06T07:11:31.169Z,8.75
2018-04-06T07:11:48.659Z,8.70
2018-04-06T07:12:06.143Z,8.32
2018-04-06T07:12:23.650Z,8.38
2018-04-06T07:12:41.129Z,8.27
2018-04-06T07:12:59.375Z,7.97
2018-04-06T07:13:16.888Z,8.77
2018-04-06T07:13:34.374Z,9.15
2018-04-06T07:13:52.637Z,10.27
2018-04-06T07:14:10.134Z,10.63
2018-04-06T07:14:27.641Z,8.48
2018-04-06T07:14:45.137Z,8.55
2018-04-06T07:15:03.390Z,9.70
2018-04-06T07:15:20.882Z,8.80
2018-04-06T07:15:38.374Z,7.75
2018-04-06T07:15:56.663Z,8.55
2018-04-06T07:16:14.183Z,9.35
2018-04-06T07:16:31.702Z,10.15
2018-04-06T15:59:21.922Z,3.47
2018-04-06T15:59:47.077Z,4.73
2018-04-06T16:00:07.897Z,5.13
2018-04-06T16:00:31.859Z,4.37
2018-04-06T16:00:51.461Z,4.60
2018-04-06T16:01:12.958Z,6.12
2018-04-06T16:01:31.431Z,5.62
2018-04-06T16:01:51.310Z,4.78
2018-04-06T16:02:09.682Z,4.95
2018-04-06T16:02:30.746Z,6.65
2018-04-06T16:02:48.652Z,4.05
2018-04-06T16:03:07.952Z,3.75
2018-04-06T16:03:26.453Z,4.05
2018-04-06T16:03:48.704Z,4.37
2018-04-06T16:04:15.170Z,5.70
2018-04-06T16:04:33.598Z,4.90
2018-04-06T16:04:51.202Z,4.68
2018-04-06T16:05:08.705Z,4.82
2018-04-06T16:05:26.198Z,5.18
2018-04-06T16:05:43.720Z,4.90
2018-04-06T16:06:01.216Z,5.53
2018-04-06T16:06:18.701Z,5.00
2018-04-06T16:06:36.194Z,4.80
2018-04-06T16:06:54.441Z,4.53
2018-04-06T16:07:12.012Z,4.00
2018-04-06T16:07:29.512Z,4.00
2018-04-06T16:07:47.024Z,4.00
2018-04-06T16:08:04.548Z,5.22
2018-04-06T16:08:22.068Z,5.72
2018-04-06T16:08:39.690Z,5.37
2018-04-06T16:08:57.217Z,6.65
2018-04-06T16:09:14.822Z,5.53
2018-04-06T16:09:32.350Z,4.03
2018-04-06T16:09:49.849Z,3.62
2018-04-06T16:10:07.330Z,5.70
2018-04-06T16:10:24.831Z,5.45
2018-04-06T16:10:42.894Z,5.15
2018-04-06T16:11:00.401Z,4.25
2018-04-06T16:11:17.884Z,4.30
2018-04-06T16:11:35.998Z,3.35
2018-04-06T16:11:53.486Z,4.50
2018-04-06T16:12:10.982Z,6.45
2018-04-06T16:12:28.584Z,5.05
2018-04-06T16:12:46.298Z,4.03
2018-04-06T16:13:03.825Z,5.30
2018-04-06T16:13:26.488Z,6.22
2018-04-06T16:13:44.463Z,5.22
2018-04-06T16:14:04.784Z,4.82
2018-04-06T16:14:27.529Z,4.55
2018-04-06T16:14:45.209Z,5.45
2018-04-06T16:15:03.207Z,5.90
2018-04-06T16:15:21.067Z,6.57
2018-04-06T16:15:39.501Z,6.03
2018-04-06T16:15:57.043Z,5.07
2018-04-06T16:16:16.695Z,5.72
2018-04-06T16:16:38.815Z,4.80
2018-04-06T16:17:01.229Z,3.87
2018-04-06T16:17:19.782Z,4.12
2018-04-06T16:17:38.263Z,4.87
2018-04-06T16:17:56.565Z,4.53
2018-04-06T16:18:14.062Z,3.60
2018-04-06T16:18:31.633Z,3.87
2018-04-06T16:18:49.139Z,2.92
2018-04-06T16:19:06.625Z,3.53
2018-04-06T16:19:24.117Z,4.40
2018-04-06T16:19:41.613Z,6.07
2018-04-06T16:19:59.106Z,7.50
2018-04-06T16:20:16.604Z,6.47
2018-04-06T16:20:34.479Z,4.65
2018-04-06T16:20:52.034Z,5.82
2018-04-06T16:21:09.544Z,5.70
2018-04-06T16:21:27.085Z,5.55
2018-04-06T16:21:44.593Z,5.00
2018-04-06T16:22:02.982Z,5.00
2018-04-06T16:22:20.484Z,4.75
2018-04-06T16:22:37.968Z,4.93
2018-04-06T16:22:56.144Z,6.28
2018-04-06T16:23:13.634Z,5.70
2018-04-06T16:23:31.124Z,4.07
2018-04-06T16:23:48.656Z,5.55
2018-04-06T16:24:06.145Z,5.47
2018-04-06T16:24:23.650Z,3.90
2018-04-06T16:24:41.145Z,5.03
2018-04-06T16:24:58.641Z,5.12
2018-04-06T16:25:16.130Z,4.53
2018-04-06T16:25:33.623Z,3.83
2018-04-06T16:25:51.214Z,4.35
2018-04-06T16:26:08.708Z,4.80
2018-04-06T16:26:26.256Z,4.43
2018-04-06T16:26:44.586Z,3.03
2018-04-06T16:27:02.105Z,5.70
2018-04-06T16:27:19.609Z,5.47
2018-04-06T16:27:37.103Z,2.53
2018-04-06T16:27:54.605Z,3.97
2018-04-06T16:28:12.117Z,5.10
2018-04-06T16:28:29.609Z,4.95
2018-04-06T16:28:47.138Z,6.30
2018-04-06T16:29:04.641Z,6.50
2018-04-06T16:29:22.209Z,6.62
2018-04-06T16:29:39.718Z,5.15
2018-04-06T16:29:57.200Z,3.10
2018-04-06T16:30:14.706Z,3.67
2018-04-06T16:30:32.226Z,4.28
2018-04-06T16:30:49.725Z,4.43
2018-04-06T16:31:07.252Z,7.80
2018-04-06T16:31:24.860Z,6.15
2018-04-06T16:31:42.403Z,4.03
2018-04-06T16:32:00.673Z,4.62
2018-04-06T16:32:18.249Z,5.03
2018-04-06T16:32:35.761Z,4.03
2018-04-06T16:32:54.022Z,4.90
2018-04-06T16:33:11.501Z,5.80
2018-04-06T16:33:28.982Z,5.10
2018-04-06T16:33:46.489Z,2.92
2018-04-06T16:34:04.005Z,4.80
2018-04-06T16:34:21.499Z,5.55
2018-04-06T16:34:39.001Z,4.90
2018-04-06T16:34:56.481Z,3.90
2018-04-06T16:35:13.972Z,4.53
2018-04-06T16:35:32.231Z,3.90
2018-04-06T16:35:49.716Z,5.82
2018-04-06T16:36:07.201Z,5.22
2018-04-06T16:36:24.733Z,5.65
2018-04-06T16:36:42.990Z,5.12
2018-04-06T16:37:00.477Z,5.30
2018-04-06T16:37:17.977Z,5.50
2018-04-06T16:37:35.464Z,6.22
2018-04-06T16:37:52.953Z,8.02
2018-04-06T16:38:10.448Z,8.23
2018-04-06T16:38:27.941Z,8.18
2018-04-06T16:38:45.464Z,7.55
2018-04-06T16:39:02.977Z,5.62
2018-04-06T16:39:20.452Z,6.20
2018-04-06T16:39:37.954Z,6.25
2018-04-06T16:39:56.204Z,6.57
2018-04-06T16:40:13.689Z,8.25
2018-04-06T16:40:31.953Z,7.90
2018-04-06T16:40:49.443Z,7.20
2018-04-06T16:41:06.955Z,7.55
2018-04-06T16:41:24.448Z,5.60
2018-04-06T16:41:42.698Z,4.35
2018-04-06T16:42:00.182Z,5.95
2018-04-06T16:42:18.684Z,7.57
2018-04-06T16:42:36.194Z,9.20
2018-04-06T16:42:53.673Z,7.95
2018-04-06T16:43:11.184Z,7.82
2018-04-06T16:43:28.668Z,7.20
2018-04-06T16:43:46.161Z,6.32
2018-04-06T16:44:03.657Z,7.43
2018-04-06T16:44:21.169Z,7.10
2018-04-06T16:44:38.658Z,10.52
2018-04-06T16:44:56.909Z,12.80
2018-04-06T16:45:14.393Z,34.13
2018-04-06T16:45:31.884Z,35.80
2018-04-06T16:45:49.382Z,24.48
2018-04-06T16:46:06.876Z,27.45
2018-04-06T16:46:24.393Z,29.63
2018-04-06T16:46:42.794Z,31.75
2018-04-06T16:47:00.289Z,36.00
2018-04-06T16:47:17.772Z,39.42
2018-04-06T16:47:35.274Z,45.67
2018-04-06T16:47:52.774Z,47.13
2018-04-06T16:48:10.296Z,47.25
2018-04-06T16:48:27.795Z,47.50
2018-04-06T16:48:45.301Z,45.08
2018-04-06T16:49:02.944Z,42.70
2018-04-06T16:49:20.454Z,47.80
2018-04-06T16:49:37.949Z,46.53
2018-04-06T16:49:55.445Z,45.60
2018-04-06T16:50:12.929Z,46.90
2018-04-06T16:50:31.184Z,45.12
2018-04-06T16:50:48.697Z,42.75
2018-04-06T16:51:06.198Z,39.33
2018-04-06T16:51:23.762Z,41.13
2018-04-06T16:51:42.181Z,43.15
2018-04-06T16:51:59.677Z,44.00
2018-04-06T16:52:17.202Z,42.85
2018-04-06T16:52:34.701Z,40.85
2018-04-06T16:52:52.192Z,42.38
2018-04-06T16:53:09.701Z,42.08
2018-04-06T16:53:27.210Z,38.88
2018-04-06T16:53:44.714Z,39.80
2018-04-06T16:54:02.245Z,41.05
2018-04-06T16:54:19.757Z,41.28
2018-04-06T16:54:37.249Z,44.50
2018-04-06T16:54:54.757Z,45.50
2018-04-06T16:55:12.262Z,42.67
2018-04-06T16:55:29.786Z,44.30
2018-04-06T16:55:47.329Z,43.10
2018-04-06T16:56:04.838Z,42.80
2018-04-06T16:56:22.340Z,41.80
2018-04-06T16:56:39.933Z,44.30
2018-04-06T16:56:58.528Z,42.62
2018-04-06T16:57:16.057Z,38.42
2018-04-06T16:57:34.333Z,38.72
2018-04-06T16:57:51.829Z,43.35
2018-04-06T16:58:09.326Z,39.55
2018-04-06T16:58:26.859Z,37.92
2018-04-06T16:58:45.232Z,42.72
2018-04-06T16:59:02.714Z,42.22
2018-04-06T16:59:20.214Z,41.45
2018-04-06T16:59:38.484Z,43.10
2018-04-06T16:59:55.974Z,41.20
2018-04-06T17:00:13.465Z,37.65
2018-04-06T17:00:31.049Z,38.55
2018-04-06T17:00:48.557Z,38.03
2018-04-06T17:01:06.066Z,38.03
2018-04-06T17:01:24.356Z,37.63
2018-04-06T17:01:41.840Z,35.83
2018-04-06T17:01:59.338Z,41.15
2018-04-06T17:02:16.846Z,41.33
2018-04-06T17:02:34.343Z,38.60
2018-04-06T17:02:51.836Z,39.08
2018-04-06T17:03:10.097Z,37.35
2018-04-06T17:03:27.580Z,37.85
2018-04-06T17:03:45.072Z,35.97
2018-04-06T17:04:03.352Z,36.92
2018-04-06T17:04:20.850Z,41.03
2018-04-06T17:04:38.340Z,38.38
2018-04-06T17:04:55.859Z,35.70
2018-04-06T17:05:13.400Z,32.50
2018-04-06T17:05:30.898Z,33.60
2018-04-06T17:05:48.408Z,34.90
2018-04-06T17:06:05.905Z,34.90
